Time;durP1;ratioP1;P1;durP2;ratioP2;P2;SDS_P1;SDS_P2;PMS_P1;PMS_P2;Temp;Humidity;BMP_temperature;BMP_pressure;BME280_temperature;BME280_humidity;BME280_pressure;Samples;Min_cycle;Max_cycle;Signal;HPM_P1;HPM_P2
2022/09/17 00:00:40;;;;;;;2.42;0.90;;;;;;;;;;5073021;28;20105;-88
2022/09/17 00:03:25;;;;;;;7.97;1.55;;;;;;;;;;5073705;28;20040;-89
2022/09/17 00:06:12;;;;;;;4.30;1.15;;;;;;;;;;5073649;28;20063;-87
2022/09/17 00:08:56;;;;;;;6.22;1.15;;;;;;;;;;5072898;28;20060;-88
2022/09/17 00:11:42;;;;;;;1.55;0.80;;;;;;;;;;5073248;28;20102;-88
2022/09/17 00:14:26;;;;;;;1.85;0.90;;;;;;;;;;5073614;28;20043;-88
2022/09/17 00:17:11;;;;;;;7.43;0.98;;;;;;;;;;5073205;28;20042;-89
2022/09/17 00:19:55;;;;;;;5.38;1.33;;;;;;;;;;5086008;28;20085;-89
2022/09/17 00:22:40;;;;;;;3.03;1.13;;;;;;;;;;5072713;28;20047;-86
2022/09/17 00:25:24;;;;;;;10.05;1.13;;;;;;;;;;5073211;28;20090;-88
2022/09/17 00:28:09;;;;;;;3.22;0.93;;;;;;;;;;5073047;28;20036;-88
2022/09/17 00:30:54;;;;;;;5.05;1.20;;;;;;;;;;5072580;28;20111;-86
2022/09/17 00:33:38;;;;;;;4.18;1.30;;;;;;;;;;5073129;28;20077;-89
2022/09/17 00:36:23;;;;;;;4.20;1.17;;;;;;;;;;5073000;28;20511;-89
2022/09/17 00:39:09;;;;;;;7.10;1.00;;;;;;;;;;5086181;28;20079;-88
2022/09/17 00:41:53;;;;;;;3.08;0.80;;;;;;;;;;5085644;28;20051;-86
2022/09/17 00:44:47;;;;;;;12.23;1.10;;;;;;;;;;5072936;28;20162;-87
2022/09/17 00:47:33;;;;;;;;;;;9.10;99.90;;;;;;5069664;28;20044;-87
2022/09/17 00:50:25;;;;;;;2.28;0.98;;;;;;;;;;5070029;28;20329;-87
2022/09/17 00:53:13;;;;;;;5.00;0.93;;;;;;;;;;5072943;28;20468;-87
2022/09/17 00:56:06;;;;;;;4.80;1.00;;;;;;;;;;5072272;28;20108;-87
2022/09/17 00:58:51;;;;;;;7.55;1.60;;;;;;;;;;5071976;28;20054;-87
2022/09/17 01:01:37;;;;;;;6.03;1.33;;;;;;;;;;5085908;28;20063;-87
2022/09/17 01:04:24;;;;;;;5.22;1.08;;;;;;;;;;5060208;28;20036;-87
2022/09/17 01:07:11;;;;;;;3.85;1.10;;;;;;;;;;5071831;28;20071;-86
2022/09/17 01:10:05;;;;;;;2.80;0.80;;;;;;;;;;5071926;28;20055;-86
2022/09/17 01:13:00;;;;;;;3.97;0.90;;;;;;;;;;5071963;28;20031;-86
2022/09/17 01:15:58;;;;;;;3.42;0.88;;;;;;;;;;5085579;28;20077;-85
2022/09/17 01:18:49;;;;;;;2.03;0.77;;;;;;;;;;5072483;28;20077;-86
2022/09/17 01:21:37;;;;;;;2.38;0.93;;;;;;;;;;5061507;28;20047;-86
2022/09/17 01:24:53;;;;;;;4.38;0.98;;;9.00;99.90;;;;;;5072057;28;20090;-86
2022/09/17 01:27:55;;;;;;;3.83;0.60;;;;;;;;;;5068089;28;20507;-86
2022/09/17 01:30:39;;;;;;;2.08;1.00;;;;;;;;;;5062529;28;20040;-86
2022/09/17 01:33:36;;;;;;;11.05;1.00;;;;;;;;;;5072131;28;20070;-86
2022/09/17 01:36:29;;;;;;;1.15;0.80;;;;;;;;;;5072202;28;20051;-86
2022/09/17 01:39:17;;;;;;;3.30;0.82;;;;;;;;;;5071905;28;20097;-86
2022/09/17 01:42:34;;;;;;;5.57;1.25;;;8.60;99.90;;;;;;5071113;28;20047;-86
2022/09/17 01:45:23;;;;;;;3.58;0.75;;;;;;;;;;5070944;28;20055;-86
2022/09/17 01:48:13;;;;;;;4.55;1.10;;;;;;;;;;5084807;28;20082;-86
2022/09/17 01:51:00;;;;;;;4.25;1.00;;;;;;;;;;5060540;28;20134;-86
2022/09/17 01:53:48;;;;;;;4.93;0.85;;;;;;;;;;5071915;28;20476;-86
2022/09/17 01:57:00;;;;;;;3.13;0.85;;;8.80;99.90;;;;;;5072193;28;20035;-86
2022/09/17 01:59:48;;;;;;;2.05;1.02;;;;;;;;;;5072020;28;20040;-86
2022/09/17 02:02:37;;;;;;;9.10;1.00;;;;;;;;;;5073358;28;20515;-86
2022/09/17 02:05:24;;;;;;;5.20;1.10;;;;;;;;;;5075863;28;20550;-86
2022/09/17 02:08:14;;;;;;;1.23;0.80;;;;;;;;;;5075317;28;20067;-86
2022/09/17 02:11:03;;;;;;;3.90;1.00;;;;;;;;;;5061349;28;20066;-85
2022/09/17 02:13:54;;;;;;;6.30;0.90;;;;;;;;;;5075618;28;20036;-86
2022/09/17 02:16:42;;;;;;;4.80;1.13;;;;;;;;;;5075979;28;20043;-86
2022/09/17 02:19:28;;;;;;;5.00;1.80;;;;;;;;;;5075388;28;20081;-86
2022/09/17 02:22:29;;;;;;;9.57;1.10;;;;;;;;;;5074757;28;20206;-85
2022/09/17 02:25:17;;;;;;;0.55;0.50;;;;;;;;;;5074896;28;20083;-85
2022/09/17 02:28:19;;;;;;;6.32;1.00;;;;;;;;;;5075071;28;20439;-87
2022/09/17 02:31:03;;;;;;;5.43;1.10;;;;;;;;;;5065275;28;20036;-86
2022/09/17 02:33:50;;;;;;;3.22;0.90;;;;;;;;;;5075138;28;20086;-86
2022/09/17 02:36:35;;;;;;;9.65;1.13;;;;;;;;;;5075360;28;20557;-85
2022/09/17 02:39:19;;;;;;;3.42;1.00;;;;;;;;;;5074722;28;20447;-85
2022/09/17 02:42:07;;;;;;;5.32;0.98;;;;;;;;;;5075024;28;20106;-87
2022/09/17 02:45:04;;;;;;;4.13;1.10;;;;;;;;;;5075320;28;20058;-85
2022/09/17 02:48:16;;;;;;;3.53;0.93;;;;;;;;;;5075128;28;20035;-85
2022/09/17 02:51:00;;;;;;;2.70;0.70;;;;;;;;;;5087942;28;20036;-83
2022/09/17 02:53:52;;;;;;;2.25;1.20;;;;;;;;;;5074887;28;20036;-84
2022/09/17 02:56:50;;;;;;;9.05;1.42;;;;;;;;;;5074950;28;20055;-85
2022/09/17 02:59:43;;;;;;;5.55;0.98;;;;;;;;;;5074941;28;20035;-85
2022/09/17 03:02:31;;;;;;;3.25;0.75;;;;;;;;;;5074653;28;20050;-85
2022/09/17 03:05:20;;;;;;;4.82;0.90;;;;;;;;;;5074305;28;20059;-85
2022/09/17 03:08:08;;;;;;;5.65;1.50;;;;;;;;;;5074360;28;20073;-85
2022/09/17 03:10:52;;;;;;;6.57;0.98;;;;;;;;;;5074712;28;20082;-84
2022/09/17 03:13:37;;;;;;;2.50;0.80;;;;;;;;;;5074225;28;20043;-85
2022/09/17 03:16:21;;;;;;;3.08;0.80;;;;;;;;;;5073917;28;20032;-85
2022/09/17 03:19:06;;;;;;;9.27;1.13;;;;;;;;;;5074135;28;20500;-84
2022/09/17 03:21:51;;;;;;;6.82;1.27;;;;;;;;;;5087903;28;20051;-85
2022/09/17 03:24:36;;;;;;;0.50;0.50;;;;;;;;;;5074298;28;20492;-85
2022/09/17 03:27:20;;;;;;;7.63;1.25;;;;;;;;;;5073842;28;20054;-84
2022/09/17 03:30:05;;;;;;;4.80;1.00;;;;;;;;;;5087112;28;20040;-83
2022/09/17 03:32:50;;;;;;;3.25;0.82;;;;;;;;;;5074529;28;20475;-85
2022/09/17 03:35:34;;;;;;;2.70;0.90;;;;;;;;;;5062336;28;20043;-85
2022/09/17 03:38:18;;;;;;;4.18;0.93;;;;;;;;;;5073480;28;20487;-84
2022/09/17 03:41:05;;;;;;;5.88;1.75;;;;;;;;;;5072814;28;20058;-84
2022/09/17 03:43:50;;;;;;;11.43;1.50;;;;;;;;;;5073994;28;20032;-85
2022/09/17 03:46:35;;;;;;;8.75;2.30;;;;;;;;;;5074003;28;20058;-86
2022/09/17 03:49:19;;;;;;;9.00;1.25;;;;;;;;;;5086791;28;20044;-86
2022/09/17 03:52:04;;;;;;;5.57;1.48;;;;;;;;;;5073833;28;20085;-86
2022/09/17 03:54:48;;;;;;;7.93;1.85;;;;;;;;;;5073921;28;20079;-86
2022/09/17 03:57:33;;;;;;;10.75;1.58;;;;;;;;;;5073535;28;20086;-86
2022/09/17 04:00:17;;;;;;;6.63;1.73;;;;;;;;;;5073128;28;20035;-85
2022/09/17 04:03:03;;;;;;;19.13;4.63;;;;;;;;;;5073864;28;20044;-85
2022/09/17 04:05:48;;;;;;;8.73;2.00;;;;;;;;;;5073466;28;20036;-85
2022/09/17 04:08:33;;;;;;;4.82;1.30;;;;;;;;;;5073096;28;20039;-85
2022/09/17 04:11:17;;;;;;;4.75;1.20;;;;;;;;;;5073063;28;20047;-85
2022/09/17 04:14:02;;;;;;;12.52;2.13;;;;;;;;;;5073485;28;20066;-85
2022/09/17 04:16:46;;;;;;;4.15;0.90;;;;;;;;;;5073485;28;20124;-85
2022/09/17 04:19:31;;;;;;;5.63;0.90;;;;;;;;;;5072781;28;20067;-85
2022/09/17 04:22:15;;;;;;;2.78;0.55;;;;;;;;;;5072850;28;20115;-84
2022/09/17 04:25:00;;;;;;;1.65;0.75;;;;;;;;;;5072655;28;20040;-85
2022/09/17 04:27:46;;;;;;;1.25;0.80;;;;;;;;;;5086446;28;20027;-85
2022/09/17 04:30:30;;;;;;;2.92;0.90;;;;;;;;;;5085978;28;20085;-85
2022/09/17 04:33:15;;;;;;;2.20;0.77;;;;;;;;;;5072526;28;20044;-84
2022/09/17 04:36:00;;;;;;;2.17;0.63;;;;;;;;;;5073095;28;20519;-84
2022/09/17 04:38:47;;;;;;;0.55;0.55;;;;;;;;;;5072887;28;20542;-84
2022/09/17 04:41:32;;;;;;;1.70;0.65;;;;;;;;;;5071945;28;20132;-84
2022/09/17 04:44:16;;;;;;;3.10;0.90;;;;;;;;;;5072661;28;20502;-82
2022/09/17 04:47:00;;;;;;;3.53;0.85;;;;;;;;;;5086042;28;20035;-85
2022/09/17 04:49:45;;;;;;;1.70;0.88;;;;;;;;;;5086429;28;20119;-84
2022/09/17 04:52:30;;;;;;;0.73;0.50;;;;;;;;;;5072264;28;20575;-84
2022/09/17 04:55:15;;;;;;;1.33;0.50;;;;;;;;;;5072588;28;20113;-84
2022/09/17 04:58:00;;;;;;;0.65;0.50;;;;;;;;;;5072745;28;20043;-84
2022/09/17 05:00:44;;;;;;;1.20;0.63;;;;;;;;;;5072400;28;20090;-84
2022/09/17 05:03:29;;;;;;;1.33;0.80;;;;;;;;;;5072118;28;20618;-84
2022/09/17 05:06:13;;;;;;;3.90;0.70;;;;;;;;;;5072703;28;20044;-84
2022/09/17 05:08:58;;;;;;;1.45;0.68;;;;;;;;;;5072444;28;20130;-83
2022/09/17 05:11:42;;;;;;;2.40;0.63;;;;;;;;;;5072015;28;20043;-84
2022/09/17 05:14:27;;;;;;;1.45;0.77;;;;;;;;;;5071653;28;20116;-83
2022/09/17 05:17:11;;;;;;;0.88;0.77;;;;;;;;;;5085639;28;20078;-83
2022/09/17 05:19:56;;;;;;;1.05;0.60;;;;;;;;;;5072402;28;20082;-84
2022/09/17 05:22:42;;;;;;;1.95;0.75;;;;;;;;;;5071660;28;20066;-84
2022/09/17 05:25:27;;;;;;;1.85;0.80;;;;;;;;;;5070763;28;20035;-83
2022/09/17 05:28:14;;;;;;;1.23;0.60;;;;;;;;;;5070558;28;20051;-84
2022/09/17 05:30:59;;;;;;;2.65;0.90;;;;;;;;;;5070354;28;20085;-84
2022/09/17 05:33:44;;;;;;;1.70;0.70;;;;;;;;;;5065041;28;20039;-84
2022/09/17 05:36:28;;;;;;;2.30;0.55;;;;;;;;;;5071423;28;20082;-84
2022/09/17 05:39:13;;;;;;;1.40;0.85;;;;;;;;;;5072014;28;20062;-84
2022/09/17 05:41:58;;;;;;;3.97;0.95;;;;;;;;;;5070656;28;20062;-83
2022/09/17 05:44:43;;;;;;;1.20;0.68;;;;;;;;;;5071475;28;20082;-84
2022/09/17 05:47:27;;;;;;;2.05;0.70;;;;;;;;;;5065854;28;20044;-82
2022/09/17 05:50:12;;;;;;;2.78;0.85;;;;;;;;;;5071968;28;20070;-84
2022/09/17 05:52:57;;;;;;;1.73;0.75;;;;;;;;;;5071918;28;20105;-86
2022/09/17 05:55:42;;;;;;;1.20;0.70;;;;;;;;;;5071295;28;20035;-86
2022/09/17 05:58:27;;;;;;;3.15;0.80;;;;;;;;;;5070515;28;20139;-84
2022/09/17 06:01:15;;;;;;;2.25;0.80;;;;;;;;;;5070961;28;20463;-86
2022/09/17 06:04:01;;;;;;;5.38;0.70;;;;;;;;;;5069046;28;20043;-86
2022/09/17 06:06:46;;;;;;;0.77;0.55;;;;;;;;;;5070718;28;20027;-86
2022/09/17 06:09:31;;;;;;;3.13;0.85;;;;;;;;;;5069917;28;20135;-86
2022/09/17 06:12:15;;;;;;;1.05;0.60;;;;;;;;;;5072038;28;20120;-86
2022/09/17 06:15:00;;;;;;;0.60;0.57;;;;;;;;;;5069764;28;20119;-86
2022/09/17 06:17:44;;;;;;;5.47;0.95;;;;;;;;;;5070867;28;20035;-86
2022/09/17 06:20:28;;;;;;;0.55;0.55;;;;;;;;;;5071383;28;20039;-83
2022/09/17 06:23:13;;;;;;;0.75;0.75;;;;;;;;;;5068163;28;20039;-85
2022/09/17 06:25:58;;;;;;;5.70;1.15;;;;;;;;;;5071576;28;20480;-85
2022/09/17 06:28:43;;;;;;;1.55;0.70;;;;;;;;;;5070983;28;20062;-85
2022/09/17 06:31:28;;;;;;;1.35;0.70;;;;;;;;;;5070503;28;20051;-86
2022/09/17 06:34:12;;;;;;;0.90;0.40;;;;;;;;;;5084846;28;20086;-86
2022/09/17 06:36:57;;;;;;;1.58;0.70;;;;;;;;;;5071528;28;20047;-88
2022/09/17 06:39:41;;;;;;;2.58;0.90;;;;;;;;;;5084351;28;20035;-87
2022/09/17 06:42:27;;;;;;;1.05;0.60;;;;;;;;;;5084921;28;20087;-88
2022/09/17 06:45:12;;;;;;;0.82;0.68;;;;;;;;;;5071488;28;20175;-87
2022/09/17 06:47:56;;;;;;;2.30;0.52;;;;;;;;;;5071671;28;20162;-86
2022/09/17 06:50:41;;;;;;;5.22;0.73;;;;;;;;;;5074403;28;20070;-92
2022/09/17 06:53:28;;;;;;;2.67;0.73;;;;;;;;;;5074850;28;20120;-86
2022/09/17 06:56:12;;;;;;;0.82;0.60;;;;;;;;;;5074432;28;20044;-89
2022/09/17 06:58:57;;;;;;;6.35;0.93;;;;;;;;;;5074008;28;20067;-87
2022/09/17 07:01:42;;;;;;;2.88;0.70;;;;;;;;;;5073125;28;20042;-87
2022/09/17 07:04:27;;;;;;;4.45;0.60;;;;;;;;;;5074913;28;20048;-87
2022/09/17 07:07:11;;;;;;;1.15;0.70;;;;;;;;;;5074681;28;20043;-87
2022/09/17 07:09:56;;;;;;;3.90;0.70;;;;;;;;;;5074080;28;20048;-89
2022/09/17 07:12:41;;;;;;;6.10;1.02;;;;;;;;;;5072974;28;20039;-87
2022/09/17 07:15:26;;;;;;;1.15;0.77;;;;;;;;;;5073457;28;20032;-87
2022/09/17 07:18:11;;;;;;;1.63;0.93;;;;;;;;;;5073575;28;20043;-86
2022/09/17 07:20:56;;;;;;;2.00;0.88;;;;;;;;;;5073757;28;20098;-88
2022/09/17 07:23:41;;;;;;;0.98;0.75;;;;;;;;;;5072698;28;20083;-85
2022/09/17 07:26:26;;;;;;;3.90;0.90;;;;;;;;;;5074411;28;20118;-86
2022/09/17 07:29:11;;;;;;;3.13;0.60;;;;;;;;;;5074238;28;20036;-85
2022/09/17 07:31:59;;;;;;;3.13;0.80;;;;;;;;;;5072963;28;20071;-90
2022/09/17 07:34:44;;;;;;;1.65;1.25;;;;;;;;;;5072096;28;20446;-85
2022/09/17 07:37:28;;;;;;;4.80;1.00;;;;;;;;;;5071947;28;20044;-85
2022/09/17 07:40:13;;;;;;;1.77;0.80;;;;;;;;;;5072320;28;20081;-85
2022/09/17 07:42:58;;;;;;;1.48;0.85;;;;;;;;;;5072776;28;20110;-85
2022/09/17 07:45:43;;;;;;;2.78;0.80;;;;;;;;;;5070132;28;20047;-85
2022/09/17 07:48:27;;;;;;;1.27;0.70;;;;;;;;;;5073942;28;20047;-84
2022/09/17 07:51:16;;;;;;;1.60;0.85;;;;;;;;;;5074116;28;20039;-84
2022/09/17 07:54:01;;;;;;;3.20;0.75;;;;;;;;;;5073174;28;20104;-84
2022/09/17 07:56:46;;;;;;;2.17;0.77;;;;;;;;;;5073359;28;20066;-84
2022/09/17 07:59:30;;;;;;;4.35;0.93;;;;;;;;;;5073387;28;20452;-83
2022/09/17 08:02:15;;;;;;;1.17;0.85;;;;;;;;;;5073503;28;20079;-84
2022/09/17 08:04:59;;;;;;;3.53;1.23;;;;;;;;;;5073209;28;20090;-86
2022/09/17 08:07:44;;;;;;;2.28;0.70;;;;;;;;;;5073178;28;20436;-86
2022/09/17 08:10:28;;;;;;;3.22;0.70;;;;;;;;;;5073542;28;20106;-87
2022/09/17 08:13:13;;;;;;;3.25;0.85;;;;;;;;;;5072641;28;20585;-87
2022/09/17 08:15:58;;;;;;;1.98;0.85;;;;;;;;;;5072782;28;20085;-86
2022/09/17 08:18:44;;;;;;;0.85;0.65;;;;;;;;;;5073292;28;20496;-85
2022/09/17 08:21:28;;;;;;;3.00;0.80;;;;;;;;;;5073188;28;20070;-87
2022/09/17 08:24:13;;;;;;;2.20;0.98;;;;;;;;;;5073286;28;20043;-87
2022/09/17 08:26:57;;;;;;;2.90;0.75;;;;;;;;;;5072740;28;20086;-88
2022/09/17 08:29:42;;;;;;;3.78;0.63;;;;;;;;;;5072975;28;20060;-91
2022/09/17 08:32:28;;;;;;;2.78;0.90;;;;;;;;;;5073328;28;20055;-90
2022/09/17 08:35:15;;;;;;;1.30;0.82;;;;;;;;;;5086645;28;20036;-93
2022/09/17 08:37:59;;;;;;;0.98;0.60;;;;;;;;;;5085514;28;20109;-89
2022/09/17 08:40:54;;;;;;;2.65;0.85;;;;;;;;;;5085934;28;20506;-90
2022/09/17 08:43:48;;;;;;;2.08;0.93;;;;;;;;;;5086053;28;20511;-88
2022/09/17 08:46:37;;;;;;;3.65;0.90;;;;;;;;;;5072879;28;20455;-88
2022/09/17 08:49:30;;;;;;;6.50;0.70;;;;;;;;;;5061824;28;20032;-88
2022/09/17 08:52:41;;;;;;;5.97;1.13;;;;;;;;;;5086072;28;20097;-87
2022/09/17 08:55:32;;;;;;;2.15;0.50;;;;;;;;;;5072570;28;20040;-86
2022/09/17 08:58:34;;;;;;;3.53;0.57;;;;;;;;;;5072776;28;20499;-85
2022/09/17 09:01:23;;;;;;;3.13;0.73;;;;;;;;;;5069346;28;20085;-84
2022/09/17 09:04:20;;;;;;;2.20;0.60;;;;;;;;;;5098173;28;20166;-86
2022/09/17 09:07:10;;;;;;;1.70;0.73;;;;;;;;;;5085201;28;20039;-86
2022/09/17 09:10:04;;;;;;;2.75;0.65;;;;;;;;;;5072003;28;20047;-86
2022/09/17 09:12:51;;;;;;;4.90;0.90;;;;;;;;;;5085511;28;20094;-88
2022/09/17 09:15:35;;;;;;;2.45;0.70;;;;;;;;;;5072369;28;20056;-89
2022/09/17 09:18:21;;;;;;;0.88;0.68;;;;;;;;;;5085648;28;20051;-87
2022/09/17 09:21:12;;;;;;;2.58;0.80;;;;;;;;;;5071657;28;20075;-88
2022/09/17 09:24:02;;;;;;;2.35;0.77;;;;;;;;;;5071884;28;20040;-88
2022/09/17 09:27:12;;;;;;;3.08;0.85;;;;;;;;;;5064313;28;20446;-89
2022/09/17 09:29:57;;;;;;;2.08;0.60;;;;;;;;;;5070496;28;20077;-89
2022/09/17 09:32:41;;;;;;;1.27;0.75;;;;;;;;;;5071877;28;20062;-84
2022/09/17 09:35:31;;;;;;;3.72;0.60;;;;;;;;;;5067581;28;20075;-84
2022/09/17 09:38:37;;;;;;;1.02;0.65;;;;;;;;;;5071526;28;20039;-87
2022/09/17 09:41:36;;;;;;;3.53;0.80;;;;;;;;;;5072001;28;20059;-87
2022/09/17 09:44:23;;;;;;;3.40;0.80;;;;;;;;;;5071645;28;20051;-85
2022/09/17 09:47:23;;;;;;;4.63;0.70;;;;;;;;;;5071463;28;20157;-86
2022/09/17 09:50:08;;;;;;;2.33;0.70;;;;;;;;;;5070516;28;20453;-88
2022/09/17 09:53:05;;;;;;;2.40;0.70;;;;;;;;;;5070767;28;20028;-88
2022/09/17 09:56:27;;;;;;;1.25;0.68;;;13.70;99.90;;;;;;5067267;28;20060;-87
2022/09/17 09:59:12;;;;;;;2.85;0.73;;;;;;;;;;5071167;28;20079;-88
2022/09/17 10:01:57;;;;;;;2.30;0.60;;;;;;;;;;5071772;28;20048;-87
2022/09/17 10:04:44;;;;;;;1.75;0.90;;;;;;;;;;5071689;28;20036;-87
2022/09/17 10:07:28;;;;;;;1.38;0.68;;;;;;;;;;5070846;28;20059;-86
2022/09/17 10:10:13;;;;;;;0.70;0.60;;;;;;;;;;5071349;28;20132;-87
2022/09/17 10:13:13;;;;;;;0.60;0.60;;;;;;;;;;5071665;28;20590;-86
2022/09/17 10:16:17;;;;;;;2.47;0.80;;;;;;;;;;5071860;28;20399;-85
2022/09/17 10:19:08;;;;;;;0.85;0.60;;;;;;;;;;5066547;28;20071;-86
2022/09/17 10:21:53;;;;;;;1.35;0.70;;;;;;;;;;5071513;28;20166;-89
2022/09/17 10:24:41;;;;;;;2.92;0.98;;;;;;;;;;5074557;28;20039;-88
2022/09/17 10:27:26;;;;;;;7.18;0.77;;;;;;;;;;5075045;28;20083;-87
2022/09/17 10:30:15;;;;;;;1.50;0.68;;;;;;;;;;5074884;28;20442;-86
2022/09/17 10:33:11;;;;;;;3.28;0.77;;;;;;;;;;5075316;28;20047;-85
2022/09/17 10:36:05;;;;;;;1.55;0.65;;;;;;;;;;5088750;28;20035;-86
2022/09/17 10:38:49;;;;;;;2.63;0.70;;;;;;;;;;5061529;28;20036;-86
2022/09/17 10:41:34;;;;;;;3.50;0.73;;;;;;;;;;5074826;28;20105;-86
2022/09/17 10:44:21;;;;;;;7.50;1.45;;;;;;;;;;5074797;28;20071;-89
2022/09/17 10:47:13;;;;;;;1.92;1.02;;;;;;;;;;5074671;28;20065;-85
2022/09/17 10:50:00;;;;;;;1.15;0.95;;;;;;;;;;5088517;28;20090;-88
2022/09/17 10:52:49;;;;;;;2.85;1.58;;;;;;;;;;5063958;28;20066;-89
2022/09/17 10:55:38;;;;;;;2.55;0.70;;;;;;;;;;5088303;28;20028;-85
2022/09/17 10:58:47;;;;;;;2.38;0.73;;;13.70;99.90;;;;;;5074660;28;20055;-88
2022/09/17 11:01:44;;;;;;;2.22;0.73;;;;;;;;;;5065796;28;20539;-89
2022/09/17 11:04:44;;;;;;;6.53;1.00;;;;;;;;;;5074497;28;20043;-94
2022/09/17 11:07:28;;;;;;;7.13;1.27;;;;;;;;;;5075620;28;20154;-95
2022/09/17 11:10:31;;;;;;;2.47;0.80;;;;;;;;;;5088205;28;20043;-92
2022/09/17 11:13:35;;;;;;;0.88;0.70;;;;;;;;;;5071491;28;20071;-93
2022/09/17 11:16:38;;;;;;;1.35;0.75;;;;;;;;;;5061449;28;20090;-89
2022/09/17 11:19:44;;;;;;;1.30;0.70;;;;;;;;;;5081363;28;20070;-89
2022/09/17 11:22:28;;;;;;;3.63;0.80;;;;;;;;;;5073571;28;20139;-90
2022/09/17 11:25:25;;;;;;;1.80;1.00;;;;;;;;;;5074065;28;20412;-89
2022/09/17 11:28:10;;;;;;;2.13;0.90;;;;;;;;;;5062170;28;20510;-85
2022/09/17 11:31:04;;;;;;;6.85;1.33;;;;;;;;;;5074425;28;20043;-89
2022/09/17 11:34:03;;;;;;;3.35;0.80;;;;;;;;;;5074269;28;20086;-88
2022/09/17 11:36:55;;;;;;;1.90;0.77;;;;;;;;;;5074058;28;20415;-87
2022/09/17 11:39:45;;;;;;;5.30;1.08;;;;;;;;;;5074207;28;20036;-88
2022/09/17 11:42:31;;;;;;;5.47;1.15;;;;;;;;;;5073344;28;20094;-86
2022/09/17 11:45:56;;;;;;;3.15;0.90;;;15.10;99.90;;;;;;5073440;28;20056;-86
2022/09/17 11:48:45;;;;;;;4.15;0.85;;;;;;;;;;5064652;28;20089;-86
2022/09/17 11:51:36;;;;;;;3.05;1.10;;;;;;;;;;5072807;28;20047;-86
2022/09/17 11:54:36;;;;;;;5.95;0.98;;;;;;;;;;5071427;28;20035;-86
2022/09/17 11:57:33;;;;;;;2.45;1.30;;;;;;;;;;5071822;28;20066;-87
2022/09/17 12:00:19;;;;;;;2.42;1.33;;;;;;;;;;5073146;28;20048;-86
2022/09/17 12:03:13;;;;;;;2.92;0.93;;;;;;;;;;5073692;28;20081;-86
2022/09/17 12:06:01;;;;;;;3.28;0.90;;;;;;;;;;5073600;28;20043;-87
2022/09/17 12:08:59;;;;;;;7.45;1.08;;;;;;;;;;5071773;28;20090;-84
2022/09/17 12:12:01;;;;;;;1.10;0.73;;;;;;;;;;5071438;28;20507;-85
2022/09/17 12:14:49;;;;;;;6.97;1.20;;;;;;;;;;5071658;28;20081;-85
2022/09/17 12:17:41;;;;;;;2.75;0.90;;;;;;;;;;5071952;28;20153;-84
2022/09/17 12:20:31;;;;;;;2.58;1.02;;;;;;;;;;5072226;28;20032;-87
2022/09/17 12:23:19;;;;;;;1.77;0.70;;;;;;;;;;5071545;28;20050;-85
2022/09/17 12:26:03;;;;;;;1.98;0.88;;;;;;;;;;5073248;28;20123;-86
2022/09/17 12:28:57;;;;;;;3.95;1.00;;;;;;;;;;5073108;28;20078;-88
2022/09/17 12:32:02;;;;;;;5.05;1.10;;;;;;;;;;5071531;28;20089;-87
2022/09/17 12:34:56;;;;;;;2.05;0.82;;;;;;;;;;5071967;28;20162;-89
2022/09/17 12:37:59;;;;;;;1.80;0.90;;;;;;;;;;5071320;28;20081;-86
2022/09/17 12:41:25;;;;;;;4.70;0.98;;;15.60;99.90;;;;;;5060133;28;20066;-87
2022/09/17 12:44:19;;;;;;;7.45;1.30;;;;;;;;;;5072945;28;20507;-87
2022/09/17 12:47:14;;;;;;;4.07;0.82;;;;;;;;;;5071248;28;20039;-87
2022/09/17 12:50:05;;;;;;;4.45;1.05;;;;;;;;;;5072148;28;20090;-87
2022/09/17 12:53:02;;;;;;;3.50;0.95;;;;;;;;;;5062634;28;20047;-87
2022/09/17 12:55:46;;;;;;;1.73;1.00;;;;;;;;;;5073092;28;20035;-87
2022/09/17 12:58:48;;;;;;;2.53;0.82;;;;;;;;;;5072442;28;20109;-88
2022/09/17 13:01:36;;;;;;;2.20;0.70;;;;;;;;;;5063772;28;20431;-88
2022/09/17 13:04:43;;;;;;;1.23;0.80;;;;;;;;;;5072660;28;20040;-89
2022/09/17 13:07:47;;;;;;;6.22;0.80;;;;;;;;;;5072122;28;20203;-86
2022/09/17 13:10:31;;;;;;;7.32;0.95;;;;;;;;;;5072311;28;20492;-89
2022/09/17 13:13:16;;;;;;;5.93;1.58;;;;;;;;;;5072860;28;20154;-89
2022/09/17 13:16:03;;;;;;;3.15;1.13;;;;;;;;;;5071521;28;20123;-89
2022/09/17 13:18:55;;;;;;;1.30;0.70;;;;;;;;;;5071070;28;20098;-90
2022/09/17 13:21:54;;;;;;;5.07;1.05;;;;;;;;;;5072133;28;20051;-85
2022/09/17 13:24:39;;;;;;;6.85;1.23;;;;;;;;;;5071904;28;20117;-89
2022/09/17 13:27:25;;;;;;;5.75;1.10;;;;;;;;;;5072539;28;20102;-89
2022/09/17 13:30:17;;;;;;;4.00;1.08;;;;;;;;;;5072721;28;20120;-88
2022/09/17 13:33:01;;;;;;;2.78;1.10;;;;;;;;;;5085805;28;20051;-92
2022/09/17 13:35:46;;;;;;;5.68;1.30;;;;;;;;;;5085341;28;20508;-89
2022/09/17 13:38:43;;;;;;;4.55;0.93;;;;;;;;;;5085183;28;20134;-89
2022/09/17 13:41:29;;;;;;;4.55;1.15;;;;;;;;;;5085018;28;20063;-88
2022/09/17 13:44:22;;;;;;;4.53;1.20;;;;;;;;;;5061396;28;20035;-90
2022/09/17 13:47:18;;;;;;;4.25;0.90;;;;;;;;;;5072355;28;20519;-89
2022/09/17 13:50:07;;;;;;;4.25;1.20;;;;;;;;;;5072241;28;20035;-90
2022/09/17 13:52:53;;;;;;;5.05;1.10;;;;;;;;;;5085179;28;20038;-93
2022/09/17 13:55:39;;;;;;;2.58;1.00;;;;;;;;;;5071826;28;20063;-89
2022/09/17 13:58:31;;;;;;;3.30;1.20;;;;;;;;;;5088594;28;20435;-91
2022/09/17 14:01:39;;;;;;;2.80;1.10;;;;;;;;;;5065469;28;20162;-91
2022/09/17 14:04:36;;;;;;;3.90;1.35;;;;;;;;;;5089745;28;20530;-90
2022/09/17 14:07:27;;;;;;;3.47;1.30;;;;;;;;;;5076134;28;20074;-89
2022/09/17 14:10:15;;;;;;;7.50;1.55;;;;;;;;;;5076459;28;20071;-89
2022/09/17 14:13:27;;;;;;;8.95;1.45;;;16.90;98.30;;;;;;5076103;28;20090;-89
2022/09/17 14:16:36;;;;;;;4.93;0.93;;;;;;;;;;5075976;28;20089;-91
2022/09/17 14:19:32;;;;;;;2.72;1.08;;;;;;;;;;5075941;28;20112;-87
2022/09/17 14:22:22;;;;;;;2.17;0.73;;;;;;;;;;5089407;28;20098;-91
2022/09/17 14:25:15;;;;;;;7.07;1.42;;;;;;;;;;5065386;28;20094;-89
2022/09/17 14:28:03;;;;;;;4.43;1.00;;;;;;;;;;5075883;28;20035;-90
2022/09/17 14:30:47;;;;;;;2.15;1.42;;;;;;;;;;5074392;28;20114;-92
2022/09/17 14:33:33;;;;;;;4.93;0.88;;;;;;;;;;5075602;28;20400;-90
2022/09/17 14:36:19;;;;;;;3.40;1.00;;;;;;;;;;5089074;28;20042;-92
2022/09/17 14:39:08;;;;;;;1.23;0.60;;;;;;;;;;5089054;28;20391;-88
2022/09/17 14:41:54;;;;;;;1.88;0.60;;;;;;;;;;5074912;28;20508;-90
2022/09/17 14:44:46;;;;;;;1.77;0.70;;;;;;;;;;5088619;28;20066;-90
2022/09/17 14:47:31;;;;;;;8.07;1.05;;;;;;;;;;5075553;28;20116;-90
2022/09/17 14:50:30;;;;;;;0.45;0.45;;;;;;;;;;5088734;28;20040;-88
2022/09/17 14:53:16;;;;;;;4.10;1.13;;;;;;;;;;5075400;28;20154;-90
2022/09/17 14:56:01;;;;;;;1.75;0.63;;;;;;;;;;5073516;28;20527;-88
2022/09/17 14:58:54;;;;;;;2.75;0.80;;;;;;;;;;5087931;28;20044;-90
2022/09/17 15:01:46;;;;;;;8.85;1.00;;;;;;;;;;5074621;28;20044;-88
2022/09/17 15:04:31;;;;;;;1.60;0.70;;;;;;;;;;5088605;28;20044;-87
2022/09/17 15:07:15;;;;;;;2.15;1.13;;;;;;;;;;5075323;28;20153;-88
2022/09/17 15:10:12;;;;;;;4.32;1.05;;;;;;;;;;5073833;28;20042;-87
2022/09/17 15:12:57;;;;;;;3.60;1.00;;;;;;;;;;5074523;28;20043;-90
2022/09/17 15:15:51;;;;;;;8.15;1.20;;;;;;;;;;5074583;28;20094;-88
2022/09/17 15:18:52;;;;;;;1.10;0.77;;;;;;;;;;5064813;28;20062;-87
2022/09/17 15:21:44;;;;;;;3.65;1.00;;;;;;;;;;5088132;28;20554;-88
2022/09/17 15:24:41;;;;;;;3.70;0.88;;;;;;;;;;5074910;28;20119;-88
2022/09/17 15:27:35;;;;;;;1.90;0.80;;;;;;;;;;5075159;28;20039;-88
2022/09/17 15:30:22;;;;;;;2.10;0.70;;;;;;;;;;5074773;28;20071;-88
2022/09/17 15:33:11;;;;;;;2.33;0.82;;;;;;;;;;5074595;28;20039;-88
2022/09/17 15:36:00;;;;;;;5.35;1.02;;;;;;;;;;5074226;28;20067;-88
2022/09/17 15:38:45;;;;;;;2.60;0.68;;;;;;;;;;5087354;28;20040;-87
2022/09/17 15:41:38;;;;;;;0.50;0.50;;;;;;;;;;5074206;28;20078;-87
2022/09/17 15:44:24;;;;;;;5.25;1.23;;;;;;;;;;5074521;28;20549;-88
2022/09/17 15:47:27;;;;;;;0.60;0.60;;;;;;;;;;5074541;28;20079;-88
2022/09/17 15:50:17;;;;;;;7.85;1.20;;;;;;;;;;5087605;28;20443;-88
2022/09/17 15:53:02;;;;;;;4.65;1.33;;;;;;;;;;5073911;28;20040;-88
2022/09/17 15:55:58;;;;;;;1.70;0.88;;;;;;;;;;5073733;28;20145;-88
2022/09/17 15:58:42;;;;;;;4.50;1.00;;;;;;;;;;5074166;28;20039;-87
2022/09/17 16:01:27;;;;;;;0.90;0.60;;;;;;;;;;5074064;28;20495;-87
2022/09/17 16:04:14;;;;;;;1.17;0.57;;;;;;;;;;5073915;28;20408;-87
2022/09/17 16:06:59;;;;;;;1.92;0.85;;;;;;;;;;5079840;28;20516;-87
2022/09/17 16:09:45;;;;;;;5.68;1.00;;;;;;;;;;5062612;28;20074;-88
